createdAt,value
2023-01-13T00:02:09.517Z,101456.84
2023-01-13T00:04:41.789Z,101456.86
2023-01-13T00:07:14.257Z,101461.23
2023-01-13T00:09:46.395Z,101451.03
2023-01-13T00:12:18.611Z,101463.65
2023-01-13T00:14:50.776Z,101455.25
2023-01-13T00:17:23.621Z,101454.17
2023-01-13T00:19:56.598Z,101454.95
2023-01-13T00:22:28.786Z,101451.55
2023-01-13T00:25:01.615Z,101451.48
2023-01-13T00:27:34.188Z,101453.87
2023-01-13T00:30:07.896Z,101451.73
2023-01-13T00:32:40.060Z,101455.70
2023-01-13T00:35:12.614Z,101460.73
2023-01-13T00:37:44.924Z,101458.98
2023-01-13T00:40:17.473Z,101458.47
2023-01-13T00:43:06.294Z,101461.98
2023-01-13T00:45:39.227Z,101457.57
2023-01-13T00:48:11.444Z,101458.02
2023-01-13T00:50:43.648Z,101460.74
2023-01-13T00:53:18.740Z,101458.48
2023-01-13T00:55:51.045Z,101454.27
2023-01-13T00:58:23.239Z,101452.98
2023-01-13T01:00:55.609Z,101451.02
2023-01-13T01:03:27.809Z,101444.81
2023-01-13T01:06:05.660Z,101443.02
2023-01-13T01:08:38.349Z,101440.52
2023-01-13T01:11:12.684Z,101438.35
2023-01-13T01:13:45.669Z,101439.30
2023-01-13T01:16:19.410Z,101434.98
2023-01-13T01:18:53.391Z,101434.77
2023-01-13T01:21:26.893Z,101434.88
2023-01-13T01:24:02.020Z,101435.92
2023-01-13T01:26:34.352Z,101432.32
2023-01-13T01:29:06.572Z,101431.23
2023-01-13T01:31:38.774Z,101423.42
2023-01-13T01:34:10.952Z,101424.52
2023-01-13T01:36:44.027Z,101424.13
2023-01-13T01:39:16.345Z,101425.13
2023-01-13T01:42:02.352Z,101421.39
2023-01-13T01:45:13.578Z,101420.34
2023-01-13T01:47:47.018Z,101422.70
2023-01-13T01:50:21.037Z,101419.05
2023-01-13T01:52:57.921Z,101419.76
2023-01-13T01:55:33.652Z,101419.34
2023-01-13T01:58:10.764Z,101419.59
2023-01-13T02:00:43.039Z,101419.69
2023-01-13T02:03:16.496Z,101415.63
2023-01-13T02:05:48.833Z,101415.63
2023-01-13T02:08:22.069Z,101409.69
2023-01-13T02:10:56.943Z,101411.98
2023-01-13T02:13:29.172Z,101410.40
2023-01-13T02:16:10.240Z,101418.44
2023-01-13T02:18:55.329Z,101416.36
2023-01-13T02:21:51.704Z,101415.10
2023-01-13T02:24:57.084Z,101415.92
2023-01-13T02:27:58.871Z,101414.98
2023-01-13T02:31:04.683Z,101413.36
2023-01-13T02:34:00.646Z,101412.23
2023-01-13T02:36:39.151Z,101408.92
2023-01-13T02:39:17.280Z,101407.05
2023-01-13T02:42:13.008Z,101404.84
2023-01-13T02:44:49.244Z,101401.59
2023-01-13T02:47:25.106Z,101401.26
2023-01-13T02:50:02.797Z,101402.08
2023-01-13T02:52:39.159Z,101402.52
2023-01-13T02:55:16.885Z,101402.61
2023-01-13T02:57:50.933Z,101402.92
2023-01-13T03:00:24.786Z,101400.75
2023-01-13T03:02:57.068Z,101398.14
2023-01-13T03:05:31.325Z,101403.12
2023-01-13T03:08:18.558Z,101406.14
2023-01-13T03:11:07.741Z,101406.16
2023-01-13T03:14:06.150Z,101409.45
2023-01-13T03:16:53.591Z,101410.86
2023-01-13T03:19:38.083Z,101413.10
2023-01-13T03:22:22.343Z,101413.04
2023-01-13T03:24:57.818Z,101418.16
2023-01-13T03:27:37.279Z,101420.49
2023-01-13T03:30:14.590Z,101419.90
2023-01-13T03:32:50.835Z,101421.77
2023-01-13T03:35:27.794Z,101422.23
2023-01-13T03:38:05.313Z,101422.46
2023-01-13T03:40:42.879Z,101428.46
2023-01-13T03:43:38.168Z,101431.38
2023-01-13T03:46:18.291Z,101433.84
2023-01-13T03:48:56.712Z,101434.27
2023-01-13T03:51:33.224Z,101428.79
2023-01-13T03:54:09.446Z,101431.31
2023-01-13T03:56:46.932Z,101433.49
2023-01-13T03:59:24.288Z,101432.11
2023-01-13T04:02:04.126Z,101429.73
2023-01-13T04:04:42.366Z,101426.98
2023-01-13T04:07:21.798Z,101420.81
2023-01-13T04:09:57.040Z,101424.14
2023-01-13T04:12:52.247Z,101428.70
2023-01-13T04:15:28.603Z,101432.52
2023-01-13T04:18:12.788Z,101432.64
2023-01-13T04:20:46.730Z,101430.27
2023-01-13T04:23:20.474Z,101426.88
2023-01-13T04:25:53.245Z,101428.50
2023-01-13T04:28:26.374Z,101429.36
2023-01-13T04:30:58.696Z,101431.27
2023-01-13T04:33:30.887Z,101431.89
2023-01-13T04:36:03.073Z,101429.88
2023-01-13T04:38:35.490Z,101433.17
2023-01-13T04:41:07.785Z,101433.73
2023-01-13T04:43:39.992Z,101430.19
2023-01-13T04:46:12.267Z,101435.27
2023-01-13T04:48:44.538Z,101432.77
2023-01-13T04:51:16.783Z,101440.48
2023-01-13T04:53:48.990Z,101439.80
2023-01-13T04:56:21.259Z,101441.41
2023-01-13T04:58:53.443Z,101443.31
2023-01-13T05:01:26.249Z,101447.79
2023-01-13T05:03:58.913Z,101448.77
2023-01-13T05:06:32.069Z,101450.60
2023-01-13T05:09:04.415Z,101447.66
2023-01-13T05:11:54.051Z,101446.88
2023-01-13T05:14:43.916Z,101446.20
2023-01-13T05:17:21.377Z,101444.20
2023-01-13T05:19:54.117Z,101442.74
2023-01-13T05:22:43.871Z,101441.79
2023-01-13T05:25:26.229Z,101442.56
2023-01-13T05:27:59.703Z,101446.42
2023-01-13T05:30:35.065Z,101444.16
2023-01-13T05:33:07.552Z,101445.14
2023-01-13T05:35:40.939Z,101446.45
2023-01-13T05:38:14.446Z,101443.90
2023-01-13T05:41:04.420Z,101443.95
2023-01-13T05:43:36.782Z,101444.70
2023-01-13T05:46:11.482Z,101447.29
2023-01-13T05:48:45.656Z,101448.27
2023-01-13T05:51:17.870Z,101448.37
2023-01-13T05:53:50.049Z,101440.75
2023-01-13T05:56:22.266Z,101453.80
2023-01-13T05:58:54.457Z,101456.66
2023-01-13T06:01:26.759Z,101460.09
2023-01-13T06:03:58.933Z,101463.77
2023-01-13T06:06:31.307Z,101465.66
2023-01-13T06:09:03.613Z,101469.02
2023-01-13T06:11:35.921Z,101464.13
2023-01-13T06:14:08.272Z,101471.68
2023-01-13T06:16:40.551Z,101475.91
2023-01-13T06:19:13.902Z,101477.15
2023-01-13T06:21:46.238Z,101478.73
2023-01-13T06:24:18.441Z,101480.23
2023-01-13T06:26:50.649Z,101478.23
2023-01-13T06:29:22.853Z,101481.66
2023-01-13T06:31:55.197Z,101485.14
2023-01-13T06:34:27.495Z,101484.89
2023-01-13T06:36:59.885Z,101486.75
2023-01-13T06:39:33.186Z,101484.80
2023-01-13T06:42:23.873Z,101488.33
2023-01-13T06:44:56.156Z,101488.56
2023-01-13T06:47:28.362Z,101490.38
2023-01-13T06:50:01.007Z,101492.16
2023-01-13T06:52:33.354Z,101491.84
2023-01-13T06:55:06.615Z,101490.00
2023-01-13T06:57:50.799Z,101491.48
2023-01-13T07:00:25.476Z,101491.35
2023-01-13T07:03:08.954Z,101495.47
2023-01-13T07:05:42.238Z,101493.63
2023-01-13T07:08:14.545Z,101497.10
2023-01-13T07:10:46.823Z,101496.23
2023-01-13T07:13:36.448Z,101494.36
2023-01-13T07:16:10.721Z,101496.80
2023-01-13T07:18:43.351Z,101499.20
2023-01-13T07:21:19.045Z,101503.42
2023-01-13T07:23:51.347Z,101505.97
2023-01-13T07:26:23.536Z,101508.30
2023-01-13T07:28:55.794Z,101510.55
2023-01-13T07:31:28.025Z,101511.63
2023-01-13T07:34:00.859Z,101507.31
2023-01-13T07:36:33.141Z,101508.71
2023-01-13T07:39:06.221Z,101509.34
2023-01-13T07:41:56.205Z,101505.77
2023-01-13T07:44:28.497Z,101508.16
2023-01-13T07:47:00.707Z,101504.58
2023-01-13T07:49:33.265Z,101504.70
2023-01-13T07:52:05.797Z,101506.31
2023-01-13T07:54:41.093Z,101503.59
2023-01-13T07:57:13.834Z,101505.27
2023-01-13T07:59:46.060Z,101508.48
2023-01-13T08:02:18.401Z,101508.96
2023-01-13T08:04:51.044Z,101506.55
2023-01-13T08:07:23.398Z,101510.14
2023-01-13T08:09:55.677Z,101515.07
2023-01-13T08:12:54.369Z,101514.49
2023-01-13T08:15:29.998Z,101513.11
2023-01-13T08:18:02.318Z,101511.27
2023-01-13T08:20:34.812Z,101508.02
2023-01-13T08:23:07.450Z,101507.67
2023-01-13T08:25:39.879Z,101506.14
2023-01-13T08:28:12.500Z,101506.89
2023-01-13T08:30:45.105Z,101507.27
2023-01-13T08:33:17.654Z,101508.48
2023-01-13T08:35:52.727Z,101507.27
2023-01-13T08:38:26.221Z,101507.91
2023-01-13T08:40:58.710Z,101507.49
2023-01-13T08:43:30.874Z,101506.46
2023-01-13T08:46:05.424Z,101504.52
2023-01-13T08:48:37.729Z,101500.00
2023-01-13T08:51:11.129Z,101497.85
2023-01-13T08:53:43.466Z,101497.81
2023-01-13T08:56:17.148Z,101495.36
2023-01-13T08:58:49.339Z,101501.56
2023-01-13T09:01:24.698Z,101500.05
2023-01-13T09:03:57.268Z,101500.70
2023-01-13T09:06:29.616Z,101496.77
2023-01-13T09:09:02.543Z,101499.33
2023-01-13T09:11:56.289Z,101490.60
2023-01-13T09:14:31.240Z,101492.65
2023-01-13T09:17:03.695Z,101488.20
2023-01-13T09:19:36.237Z,101487.92
2023-01-13T09:22:08.663Z,101486.08
2023-01-13T09:24:40.800Z,101472.58
2023-01-13T09:27:14.380Z,101477.61
2023-01-13T09:29:46.715Z,101480.70
2023-01-13T09:32:19.205Z,101477.61
2023-01-13T09:35:03.995Z,101473.85
2023-01-13T09:37:39.051Z,101469.88
2023-01-13T09:40:18.214Z,101475.00
2023-01-13T09:43:15.075Z,101473.14
2023-01-13T09:45:50.984Z,101472.31
2023-01-13T09:48:23.863Z,101470.82
2023-01-13T09:51:09.722Z,101471.59
2023-01-13T09:53:49.119Z,101468.80
2023-01-13T09:56:21.443Z,101457.77
2023-01-13T09:58:53.789Z,101464.20
2023-01-13T10:01:34.101Z,101461.31
2023-01-13T10:04:11.498Z,101462.27
2023-01-13T10:06:48.409Z,101465.39
2023-01-13T10:09:28.481Z,101456.80
2023-01-13T10:12:20.667Z,101465.10
2023-01-13T10:14:56.759Z,101466.23
2023-01-13T10:17:35.383Z,101461.16
2023-01-13T10:20:22.480Z,101457.38
2023-01-13T10:23:07.912Z,101454.74
2023-01-13T10:25:57.163Z,101449.48
2023-01-13T10:28:29.386Z,101447.46
2023-01-13T10:31:01.816Z,101449.67
2023-01-13T10:33:34.059Z,101445.44
2023-01-13T10:36:14.832Z,101443.20
2023-01-13T10:38:48.837Z,101442.09
2023-01-13T10:41:25.632Z,101442.14
2023-01-13T10:44:08.556Z,101440.08
2023-01-13T10:46:56.509Z,101433.77
2023-01-13T10:49:38.725Z,101429.08
2023-01-13T10:52:31.322Z,101426.25
2023-01-13T10:55:03.695Z,101422.98
2023-01-13T10:57:39.083Z,101417.86
2023-01-13T11:00:28.798Z,101413.92
2023-01-13T11:03:17.242Z,101414.42
2023-01-13T11:05:55.009Z,101411.92
2023-01-13T11:08:30.292Z,101410.97
2023-01-13T11:11:02.616Z,101406.70
2023-01-13T11:14:00.881Z,101404.42
2023-01-13T11:16:34.283Z,101403.44
2023-01-13T11:19:13.211Z,101401.74
2023-01-13T11:21:54.588Z,101400.02
2023-01-13T11:24:36.310Z,101395.33
2023-01-13T11:27:14.449Z,101391.08
2023-01-13T11:30:00.645Z,101386.30
2023-01-13T11:32:38.355Z,101381.45
2023-01-13T11:35:19.444Z,101381.88
2023-01-13T11:37:56.427Z,101379.83
2023-01-13T11:40:35.577Z,101377.44
2023-01-13T11:43:19.275Z,101373.30
2023-01-13T11:45:57.583Z,101373.95
2023-01-13T11:48:33.213Z,101366.89
2023-01-13T11:51:13.312Z,101372.44
2023-01-13T11:54:04.383Z,101367.27
2023-01-13T11:56:55.394Z,101368.97
2023-01-13T11:59:53.396Z,101362.58
2023-01-13T12:02:37.208Z,101360.70
2023-01-13T12:05:19.089Z,101361.02
2023-01-13T12:08:05.185Z,101361.94
2023-01-13T12:10:52.826Z,101359.35
2023-01-13T12:13:35.635Z,101358.45
2023-01-13T12:16:24.828Z,101354.20
2023-01-13T12:19:33.850Z,101354.18
2023-01-13T12:22:12.808Z,101355.12
2023-01-13T12:24:52.516Z,101355.05
2023-01-13T12:27:32.453Z,101351.58
2023-01-13T12:30:14.541Z,101356.19
2023-01-13T12:32:47.708Z,101355.03
2023-01-13T12:35:31.045Z,101352.83
2023-01-13T12:38:12.979Z,101354.98
2023-01-13T12:40:55.563Z,101352.06
2023-01-13T12:43:45.439Z,101354.09
2023-01-13T12:46:57.456Z,101356.38
2023-01-13T12:49:32.939Z,101357.29
2023-01-13T12:52:24.433Z,101360.07
2023-01-13T12:55:18.234Z,101358.81
2023-01-13T12:58:19.351Z,101348.36
2023-01-13T13:01:01.788Z,101361.65
2023-01-13T13:03:37.240Z,101365.52
2023-01-13T13:06:18.727Z,101367.11
2023-01-13T13:09:03.683Z,101366.71
2023-01-13T13:12:03.786Z,101367.64
2023-01-13T13:15:07.167Z,101371.40
2023-01-13T13:17:47.219Z,101373.36
2023-01-13T13:20:56.554Z,101372.83
2023-01-13T13:24:03.029Z,101376.35
2023-01-13T13:26:45.924Z,101372.54
2023-01-13T13:29:39.264Z,101374.04
2023-01-13T13:32:47.791Z,101375.21
2023-01-13T13:35:40.321Z,101385.23
2023-01-13T13:38:43.622Z,101384.66
2023-01-13T13:41:38.734Z,101389.87
2023-01-13T13:44:38.008Z,101387.63
2023-01-13T13:47:10.571Z,101385.05
2023-01-13T13:49:46.707Z,101381.42
2023-01-13T13:52:25.870Z,101385.63
2023-01-13T13:55:07.588Z,101383.55
2023-01-13T13:57:42.535Z,101382.79
2023-01-13T14:00:25.054Z,101379.45
2023-01-13T14:03:01.215Z,101376.33
2023-01-13T14:05:35.153Z,101380.45
2023-01-13T14:08:18.368Z,101381.16
2023-01-13T14:10:50.879Z,101381.97
2023-01-13T14:13:25.898Z,101380.49
2023-01-13T14:16:01.142Z,101377.18
2023-01-13T14:18:36.681Z,101379.65
2023-01-13T14:21:22.186Z,101380.20
2023-01-13T14:23:57.071Z,101381.11
2023-01-13T14:26:31.134Z,101380.00
2023-01-13T14:29:04.629Z,101378.92
2023-01-13T14:31:39.741Z,101378.99
2023-01-13T14:34:31.987Z,101379.54
2023-01-13T14:37:22.666Z,101377.86
2023-01-13T14:39:55.564Z,101377.72
2023-01-13T14:42:29.877Z,101375.05
2023-01-13T14:45:03.458Z,101375.29
2023-01-13T14:47:35.950Z,101375.31
2023-01-13T14:50:18.775Z,101376.17
2023-01-13T14:52:54.827Z,101379.89
2023-01-13T14:55:31.381Z,101377.55
2023-01-13T14:58:28.466Z,101379.14
2023-01-13T15:01:28.953Z,101379.09
2023-01-13T15:04:25.880Z,101377.52
2023-01-13T15:07:00.882Z,101377.34
2023-01-13T15:09:40.075Z,101380.98
2023-01-13T15:12:25.868Z,101384.57
2023-01-13T15:14:59.657Z,101386.92
2023-01-13T15:17:31.843Z,101385.00
2023-01-13T15:20:04.084Z,101381.60
2023-01-13T15:22:36.460Z,101389.16
2023-01-13T15:25:10.906Z,101387.52
2023-01-13T15:27:45.392Z,101387.64
2023-01-13T15:30:20.086Z,101393.16
2023-01-13T15:32:53.334Z,101397.82
2023-01-13T15:35:27.120Z,101402.02
2023-01-13T15:37:59.644Z,101404.33
2023-01-13T15:40:34.103Z,101400.73
2023-01-13T15:43:23.687Z,101401.76
2023-01-13T15:46:25.029Z,101404.12
2023-01-13T15:48:58.758Z,101405.38
2023-01-13T15:51:30.923Z,101407.85
2023-01-13T15:54:03.237Z,101408.86
2023-01-13T15:56:37.795Z,101411.59
2023-01-13T15:59:17.791Z,101410.73
2023-01-13T16:01:50.082Z,101408.61
2023-01-13T16:04:22.656Z,101411.14
2023-01-13T16:06:55.418Z,101411.27
2023-01-13T16:09:27.603Z,101412.68
2023-01-13T16:11:59.776Z,101411.44
2023-01-13T16:14:31.947Z,101411.93
2023-01-13T16:17:05.853Z,101410.27
2023-01-13T16:19:38.013Z,101410.21
2023-01-13T16:22:13.544Z,101409.48
2023-01-13T16:24:48.420Z,101412.17
2023-01-13T16:27:23.164Z,101413.16
2023-01-13T16:29:55.537Z,101415.37
2023-01-13T16:32:27.759Z,101420.58
2023-01-13T16:34:59.921Z,101421.39
2023-01-13T16:37:32.200Z,101420.73
2023-01-13T16:40:04.764Z,101419.39
2023-01-13T16:42:37.398Z,101421.20
2023-01-13T16:45:11.125Z,101420.07
2023-01-13T16:47:44.497Z,101421.00
2023-01-13T16:50:27.169Z,101419.59
2023-01-13T16:52:59.402Z,101410.31
2023-01-13T16:55:31.713Z,101409.22
2023-01-13T16:58:04.413Z,101414.48
2023-01-13T17:00:36.705Z,101415.04
2023-01-13T17:03:08.971Z,101418.05
2023-01-13T17:05:43.257Z,101418.09
2023-01-13T17:08:17.814Z,101414.02
2023-01-13T17:10:51.837Z,101414.95
2023-01-13T17:13:24.543Z,101410.17
2023-01-13T17:15:56.762Z,101413.89
2023-01-13T17:18:28.893Z,101410.80
2023-01-13T17:21:01.606Z,101415.27
2023-01-13T17:23:33.920Z,101406.82
2023-01-13T17:26:06.468Z,101402.80
2023-01-13T17:28:39.324Z,101403.94
2023-01-13T17:31:11.489Z,101402.54
2023-01-13T17:33:43.653Z,101401.46
2023-01-13T17:36:16.014Z,101400.89
2023-01-13T17:38:48.237Z,101407.18
2023-01-13T17:41:20.427Z,101406.23
2023-01-13T17:43:52.980Z,101407.19
2023-01-13T17:46:25.181Z,101401.31
2023-01-13T17:48:57.661Z,101404.02
2023-01-13T17:51:30.321Z,101403.73
2023-01-13T17:54:02.602Z,101400.06
2023-01-13T17:56:34.802Z,101399.96
2023-01-13T17:59:08.910Z,101400.53
2023-01-13T18:01:42.544Z,101397.88
2023-01-13T18:04:17.910Z,101397.89
2023-01-13T18:06:50.736Z,101395.47
2023-01-13T18:09:23.489Z,101395.52
2023-01-13T18:11:55.761Z,101393.84
2023-01-13T18:14:28.340Z,101391.67
2023-01-13T18:17:00.636Z,101394.73
2023-01-13T18:19:50.551Z,101399.98
2023-01-13T18:22:40.226Z,101398.02
2023-01-13T18:25:31.543Z,101400.72
2023-01-13T18:28:04.019Z,101397.29
2023-01-13T18:30:36.868Z,101398.86
2023-01-13T18:33:09.033Z,101401.23
2023-01-13T18:35:42.449Z,101408.92
2023-01-13T18:38:15.428Z,101410.43
2023-01-13T18:40:47.722Z,101409.80
2023-01-13T18:43:20.041Z,101410.17
2023-01-13T18:45:53.784Z,101411.13
2023-01-13T18:48:25.959Z,101411.85
2023-01-13T18:50:58.173Z,101413.90
2023-01-13T18:53:30.329Z,101412.05
2023-01-13T18:56:05.655Z,101412.41
2023-01-13T18:58:40.199Z,101407.52
2023-01-13T19:01:12.534Z,101409.64
2023-01-13T19:03:44.892Z,101409.43
2023-01-13T19:06:17.499Z,101408.01
2023-01-13T19:08:53.350Z,101404.95
2023-01-13T19:11:24.752Z,101407.03
2023-01-13T19:13:57.028Z,101403.44
2023-01-13T19:16:29.355Z,101402.54
2023-01-13T19:19:02.282Z,101401.34
2023-01-13T19:21:34.434Z,101395.86
2023-01-13T19:24:07.231Z,101397.01
2023-01-13T19:26:39.396Z,101395.99
2023-01-13T19:29:12.916Z,101394.41
2023-01-13T19:31:45.153Z,101392.42
2023-01-13T19:34:17.477Z,101391.94
2023-01-13T19:36:53.669Z,101395.23
2023-01-13T19:39:26.190Z,101399.27
2023-01-13T19:42:15.913Z,101400.45
2023-01-13T19:45:05.808Z,101398.02
2023-01-13T19:47:38.751Z,101390.48
2023-01-13T19:50:12.749Z,101390.51
2023-01-13T19:52:45.435Z,101395.30
2023-01-13T19:55:17.591Z,101395.89
2023-01-13T19:57:50.014Z,101395.41
2023-01-13T20:00:23.989Z,101392.42
2023-01-13T20:03:00.743Z,101389.45
2023-01-13T20:05:33.030Z,101390.52
2023-01-13T20:08:05.357Z,101388.61
2023-01-13T20:10:38.187Z,101388.15
2023-01-13T20:13:10.341Z,101384.86
2023-01-13T20:15:44.048Z,101387.83
2023-01-13T20:18:16.623Z,101387.79
2023-01-13T20:20:48.845Z,101386.66
2023-01-13T20:23:21.099Z,101386.21
2023-01-13T20:25:53.322Z,101389.40
2023-01-13T20:28:25.551Z,101388.24
2023-01-13T20:30:57.778Z,101388.23
2023-01-13T20:33:29.965Z,101391.18
2023-01-13T20:36:02.297Z,101391.38
2023-01-13T20:38:38.460Z,101390.42
2023-01-13T20:41:24.565Z,101390.33
2023-01-13T20:43:56.784Z,101394.63
2023-01-13T20:46:29.394Z,101396.84
2023-01-13T20:49:01.671Z,101397.04
2023-01-13T20:51:33.980Z,101399.14
2023-01-13T20:54:06.413Z,101397.46
2023-01-13T20:56:40.594Z,101402.37
2023-01-13T20:59:13.231Z,101398.48
2023-01-13T21:01:46.028Z,101400.50
2023-01-13T21:04:18.289Z,101396.83
2023-01-13T21:06:51.097Z,101397.45
2023-01-13T21:09:23.775Z,101396.10
2023-01-13T21:12:13.888Z,101396.58
2023-01-13T21:15:03.703Z,101393.44
2023-01-13T21:17:53.222Z,101395.45
2023-01-13T21:20:25.615Z,101392.19
2023-01-13T21:22:57.869Z,101394.59
2023-01-13T21:25:30.186Z,101390.48
2023-01-13T21:28:06.812Z,101394.16
2023-01-13T21:30:39.469Z,101393.62
2023-01-13T21:33:15.126Z,101390.65
2023-01-13T21:35:47.396Z,101389.53
2023-01-13T21:38:19.728Z,101384.35
2023-01-13T21:41:04.952Z,101376.19
2023-01-13T21:43:55.290Z,101378.34
2023-01-13T21:46:45.393Z,101373.98
2023-01-13T21:49:17.604Z,101377.31
2023-01-13T21:51:49.868Z,101374.86
2023-01-13T21:54:22.227Z,101376.58
2023-01-13T21:56:54.498Z,101371.35
2023-01-13T21:59:26.623Z,101371.47
2023-01-13T22:02:24.416Z,101371.55
2023-01-13T22:04:57.273Z,101366.83
2023-01-13T22:07:29.913Z,101362.59
2023-01-13T22:10:03.972Z,101355.05
2023-01-13T22:12:36.549Z,101352.66
2023-01-13T22:15:11.455Z,101348.15
2023-01-13T22:17:45.747Z,101351.95
2023-01-13T22:20:19.368Z,101352.58
2023-01-13T22:22:51.830Z,101350.74
2023-01-13T22:25:24.176Z,101350.95
2023-01-13T22:28:03.762Z,101349.44
2023-01-13T22:30:35.969Z,101351.21
2023-01-13T22:33:08.219Z,101348.55
2023-01-13T22:35:40.462Z,101345.63
2023-01-13T22:38:12.745Z,101342.38
2023-01-13T22:40:45.069Z,101340.74
2023-01-13T22:43:17.440Z,101336.86
2023-01-13T22:45:59.115Z,101330.89
2023-01-13T22:48:31.740Z,101332.41
2023-01-13T22:51:09.427Z,101329.23
2023-01-13T22:53:42.264Z,101331.98
2023-01-13T22:56:19.659Z,101332.75
2023-01-13T22:58:55.755Z,101335.55
2023-01-13T23:01:29.250Z,101335.63
2023-01-13T23:04:01.599Z,101334.91
2023-01-13T23:06:35.099Z,101330.45
2023-01-13T23:09:07.324Z,101325.79
2023-01-13T23:11:39.918Z,101329.50
2023-01-13T23:14:14.123Z,101335.27
2023-01-13T23:16:48.134Z,101333.55
2023-01-13T23:19:20.338Z,101328.78
2023-01-13T23:21:52.741Z,101322.33
2023-01-13T23:24:26.859Z,101325.48
2023-01-13T23:26:59.173Z,101329.98
2023-01-13T23:29:31.340Z,101327.14
2023-01-13T23:32:03.797Z,101330.23
2023-01-13T23:34:36.195Z,101326.61
2023-01-13T23:37:08.420Z,101321.59
2023-01-13T23:39:40.719Z,101320.30
2023-01-13T23:42:12.896Z,101318.39
2023-01-13T23:44:45.149Z,101321.36
2023-01-13T23:47:17.312Z,101318.08
2023-01-13T23:49:49.518Z,101316.48
2023-01-13T23:52:21.705Z,101313.76
2023-01-13T23:54:53.966Z,101313.73
2023-01-13T23:57:26.272Z,101314.37
2023-01-13T23:59:58.510Z,101307.86
